Time;durP1;ratioP1;P1;durP2;ratioP2;P2;SDS_P1;SDS_P2;PMS_P1;PMS_P2;Temp;Humidity;BMP_temperature;BMP_pressure;BME280_temperature;BME280_humidity;BME280_pressure;Samples;Min_cycle;Max_cycle;Signal;HPM_P1;HPM_P2
2023/12/24 00:02:05;;;;;;;2.20;1.20;;;;;;;-0.40;92.13;95319.60;109018;1271;25006;-81
2023/12/24 00:04:36;;;;;;;5.50;1.80;;;;;;;-0.40;91.70;95319.45;108988;1271;22507;-81
2023/12/24 00:07:07;;;;;;;1.60;1.10;;;;;;;-0.43;91.93;95314.50;108994;1265;22522;-80
2023/12/24 00:09:38;;;;;;;3.40;1.80;;;;;;;-0.44;92.22;95315.16;108966;1271;31452;-80
2023/12/24 00:12:13;;;;;;;6.40;1.30;;;;;;;-0.44;91.79;95311.93;109005;1271;22657;-80
2023/12/24 00:14:44;;;;;;;1.60;1.00;;;;;;;-0.43;92.44;95311.58;109045;1271;25258;-80
2023/12/24 00:17:15;;;;;;;2.70;1.50;;;;;;;-0.41;92.48;95313.77;109036;1271;22958;-80
2023/12/24 00:19:46;;;;;;;1.00;0.80;;;;;;;-0.41;92.71;95325.95;108990;1271;25227;-80
2023/12/24 00:22:18;;;;;;;2.00;1.10;;;;;;;-0.41;92.47;95327.05;109001;1271;22542;-81
2023/12/24 00:24:49;;;;;;;1.90;1.00;;;;;;;-0.44;92.39;95329.64;109046;1271;22600;-81
2023/12/24 00:27:26;;;;;;;5.20;1.30;;;;;;;-0.45;92.96;95322.96;109047;1271;25425;-81
2023/12/24 00:29:59;;;;;;;3.60;1.10;;;;;;;-0.44;93.28;95321.25;109255;1268;22520;-81
2023/12/24 00:32:33;;;;;;;3.40;0.90;;;;;;;-0.42;93.13;95320.25;109005;1271;22534;-81
2023/12/24 00:35:05;;;;;;;2.70;1.20;;;;;;;-0.42;92.86;95320.45;108964;1271;22524;-81
2023/12/24 00:37:36;;;;;;;1.40;0.90;;;;;;;-0.43;92.93;95312.52;108994;1249;22537;-81
2023/12/24 00:40:09;;;;;;;2.90;1.20;;;;;;;-0.42;92.61;95313.81;108985;1271;22603;-81
2023/12/24 00:42:41;;;;;;;4.00;1.10;;;;;;;-0.41;92.14;95321.98;109091;1271;22529;-80
2023/12/24 00:45:14;;;;;;;2.60;0.60;;;;;;;-0.40;91.95;95334.55;109034;1271;25410;-81
2023/12/24 00:47:45;;;;;;;1.10;0.60;;;;;;;-0.39;91.53;95338.00;109003;1271;23800;-81
2023/12/24 00:50:18;;;;;;;4.20;0.80;;;;;;;-0.39;91.67;95330.23;109218;1271;66803;-82
2023/12/24 00:52:53;;;;;;;0.90;0.40;;;;;;;-0.40;90.97;95331.33;109273;1271;24013;-81
2023/12/24 00:55:27;;;;;;;2.70;0.70;;;;;;;-0.41;90.69;95329.53;108997;1271;22541;-80
2023/12/24 00:58:00;;;;;;;2.10;0.60;;;;;;;-0.41;89.89;95334.95;108957;1271;22557;-75
2023/12/24 01:00:34;;;;;;;3.90;0.90;;;;;;;-0.42;89.56;95328.50;108924;1268;22577;-75
2023/12/24 01:03:05;;;;;;;2.80;0.50;;;;;;;-0.42;88.98;95338.28;108958;1268;25271;-80
2023/12/24 01:05:37;;;;;;;2.10;0.70;;;;;;;-0.43;88.99;95338.05;108989;1271;22908;-81
2023/12/24 01:08:10;;;;;;;0.50;0.30;;;;;;;-0.44;89.01;95346.50;108998;1271;22517;-81
2023/12/24 01:10:41;;;;;;;1.50;0.30;;;;;;;-0.45;88.85;95353.00;108963;1265;28875;-81
2023/12/24 01:13:14;;;;;;;3.60;1.10;;;;;;;-0.47;88.98;95357.30;108998;1265;22517;-80
2023/12/24 01:15:45;;;;;;;1.50;0.70;;;;;;;-0.47;89.74;95361.35;109064;1264;24977;-79
2023/12/24 01:18:16;;;;;;;0.60;0.50;;;;;;;-0.47;89.80;95364.74;108974;1266;22534;-80
2023/12/24 01:20:47;;;;;;;1.40;0.60;;;;;;;-0.49;89.92;95367.02;108976;1271;22739;-80
2023/12/24 01:23:18;;;;;;;1.60;0.80;;;;;;;-0.50;89.94;95366.95;109012;1271;23811;-80
2023/12/24 01:25:53;;;;;;;1.00;0.30;;;;;;;-0.52;90.17;95369.48;109008;1271;22525;-80
2023/12/24 01:28:30;;;;;;;1.30;0.80;;;;;;;-0.52;90.80;95374.05;108949;1264;28040;-80
2023/12/24 01:31:01;;;;;;;1.30;0.70;;;;;;;-0.53;90.68;95376.33;109022;1271;22518;-79
2023/12/24 01:33:33;;;;;;;0.70;0.50;;;;;;;-0.56;90.69;95374.11;108972;1271;22555;-79
2023/12/24 01:36:04;;;;;;;1.60;0.50;;;;;;;-0.59;90.84;95369.77;108959;1271;22518;-79
2023/12/24 01:38:35;;;;;;;1.50;0.80;;;;;;;-0.62;90.97;95369.06;108964;1250;22513;-79
2023/12/24 01:41:07;;;;;;;1.30;0.90;;;;;;;-0.64;91.11;95373.46;108958;1271;22527;-79
2023/12/24 01:43:38;;;;;;;1.70;0.80;;;;;;;-0.67;91.49;95371.13;108976;1271;22519;-75
2023/12/24 01:46:10;;;;;;;2.40;1.30;;;;;;;-0.68;91.62;95377.68;109000;1271;22518;-76
2023/12/24 01:48:42;;;;;;;1.30;0.80;;;;;;;-0.67;91.85;95381.70;108957;1268;48952;-79
2023/12/24 01:51:13;;;;;;;1.70;0.60;;;;;;;-0.67;91.87;95382.95;108953;1271;22599;-80
2023/12/24 01:53:46;;;;;;;0.90;0.40;;;;;;;-0.66;92.01;95394.14;108950;1265;25406;-80
2023/12/24 01:56:20;;;;;;;0.90;0.50;;;;;;;-0.66;92.13;95398.00;108975;1271;22519;-80
2023/12/24 01:58:55;;;;;;;2.00;0.70;;;;;;;-0.63;92.22;95396.27;108944;1271;22533;-80
2023/12/24 02:01:27;;;;;;;0.60;0.60;;;;;;;-0.60;92.29;95400.52;109019;1265;22518;-80
2023/12/24 02:03:58;;;;;;;0.20;0.20;;;;;;;-0.58;92.28;95404.92;108992;1267;24190;-80
2023/12/24 02:06:32;;;;;;;1.40;0.30;;;;;;;-0.56;92.43;95404.73;108923;1271;22521;-79
2023/12/24 02:09:05;;;;;;;1.70;0.30;;;;;;;-0.56;92.01;95403.86;108965;1271;28749;-80
2023/12/24 02:11:36;;;;;;;0.50;0.30;;;;;;;-0.58;91.56;95406.33;108957;1265;24206;-79
2023/12/24 02:14:07;;;;;;;0.60;0.30;;;;;;;-0.60;91.32;95418.90;108995;1271;22531;-80
2023/12/24 02:16:40;;;;;;;0.20;0.20;;;;;;;-0.61;91.41;95423.52;108973;1271;22522;-80
2023/12/24 02:19:17;;;;;;;1.00;0.20;;;;;;;-0.64;91.33;95429.73;108930;1268;22456;-80
2023/12/24 02:21:48;;;;;;;2.70;0.80;;;;;;;-0.67;91.38;95431.30;108955;1264;24193;-79
2023/12/24 02:24:22;;;;;;;0.20;0.20;;;;;;;-0.69;91.28;95428.71;108939;1267;24025;-79
2023/12/24 02:27:09;;;;;;;0.90;0.20;;;;;;;-0.71;91.57;95435.69;108975;1264;22530;-79
2023/12/24 02:29:44;;;;;;;0.60;0.20;;;;;;;-0.75;91.52;95434.22;108958;1271;22528;-79
2023/12/24 02:32:16;;;;;;;0.30;0.20;;;;;;;-0.80;91.77;95444.52;108959;1271;23571;-79
2023/12/24 02:34:49;;;;;;;1.00;0.50;;;;;;;-0.85;92.01;95446.17;108915;1268;22505;-79
2023/12/24 02:37:23;;;;;;;1.00;0.30;;;;;;;-0.89;91.94;95439.56;108955;1271;22533;-79
2023/12/24 02:39:57;;;;;;;1.40;0.30;;;;;;;-0.89;92.21;95432.28;108979;1271;22517;-79
2023/12/24 02:42:28;;;;;;;2.70;0.40;;;;;;;-0.88;92.32;95433.80;108958;1271;22582;-79
2023/12/24 02:45:00;;;;;;;0.50;0.30;;;;;;;-0.87;92.13;95430.89;109020;1265;25952;-79
2023/12/24 02:47:33;;;;;;;1.90;0.50;;;;;;;-0.86;91.92;95426.65;108964;1271;22511;-78
2023/12/24 02:50:05;;;;;;;1.00;0.30;;;;;;;-0.83;92.13;95424.69;108912;1266;25421;-78
2023/12/24 02:52:36;;;;;;;1.60;1.00;;;;;;;-0.82;92.13;95425.91;108928;1265;22520;-78
2023/12/24 02:55:07;;;;;;;0.80;0.50;;;;;;;-0.81;92.24;95431.48;108977;1268;22588;-78
2023/12/24 02:57:39;;;;;;;0.30;0.30;;;;;;;-0.82;92.35;95434.86;108939;1263;22521;-78
2023/12/24 03:00:15;;;;;;;0.80;0.30;;;;;;;-0.82;92.36;95431.63;108938;1271;22519;-79
2023/12/24 03:02:47;;;;;;;1.80;0.60;;;;;;;-0.82;92.25;95433.28;108986;1271;22501;-78
2023/12/24 03:05:19;;;;;;;1.70;0.60;;;;;;;-0.81;92.64;95431.53;108946;1263;22845;-78
2023/12/24 03:07:50;;;;;;;1.00;0.60;;;;;;;-0.80;92.55;95435.62;108927;1271;22524;-78
2023/12/24 03:10:21;;;;;;;2.40;0.60;;;;;;;-0.80;92.64;95434.41;108954;1271;27751;-80
2023/12/24 03:12:53;;;;;;;1.10;0.70;;;;;;;-0.81;92.83;95433.00;108980;1268;24384;-79
2023/12/24 03:15:26;;;;;;;0.60;0.40;;;;;;;-0.83;92.79;95438.69;108986;1268;22523;-78
2023/12/24 03:17:57;;;;;;;2.50;0.50;;;;;;;-0.85;92.73;95441.61;108929;1271;22485;-78
2023/12/24 03:20:28;;;;;;;0.40;0.30;;;;;;;-0.86;92.98;95445.27;108848;1265;22527;-77
2023/12/24 03:23:00;;;;;;;1.90;0.90;;;;;;;-0.88;93.58;95445.66;108833;1268;126051;-77
2023/12/24 03:25:33;;;;;;;1.10;0.50;;;;;;;-0.88;93.53;95441.08;108968;1265;22740;-77
2023/12/24 03:28:04;;;;;;;2.00;0.80;;;;;;;-0.89;93.47;95436.85;108978;1271;22546;-79
2023/12/24 03:30:35;;;;;;;0.30;0.30;;;;;;;-0.91;93.56;95446.14;108915;1271;23430;-78
2023/12/24 03:33:06;;;;;;;0.30;0.30;;;;;;;-0.92;93.51;95449.24;108954;1271;22626;-78
2023/12/24 03:35:37;;;;;;;1.10;0.50;;;;;;;-0.93;93.76;95449.39;108924;1266;22629;-78
2023/12/24 03:38:10;;;;;;;0.50;0.30;;;;;;;-0.94;93.66;95456.75;108895;1268;25950;-78
2023/12/24 03:40:41;;;;;;;1.20;0.40;;;;;;;-0.96;93.77;95454.44;108938;1265;24242;-78
2023/12/24 03:43:12;;;;;;;1.30;0.80;;;;;;;-0.99;94.10;95448.55;108928;1271;24373;-78
2023/12/24 03:45:43;;;;;;;1.10;0.40;;;;;;;-1.00;94.09;95453.73;108906;1271;22833;-78
2023/12/24 03:48:15;;;;;;;1.10;0.20;;;;;;;-1.00;93.98;95449.86;108934;1271;23277;-78
2023/12/24 03:50:47;;;;;;;1.40;0.40;;;;;;;-1.03;94.04;95452.64;108921;1266;22506;-79
2023/12/24 03:53:18;;;;;;;0.80;0.30;;;;;;;-1.05;94.18;95454.48;108946;1266;22510;-78
2023/12/24 03:55:49;;;;;;;0.90;0.50;;;;;;;-1.06;94.06;95461.69;108928;1271;22524;-78
2023/12/24 03:58:22;;;;;;;0.20;0.20;;;;;;;-1.08;94.03;95464.30;108902;1269;22521;-78
2023/12/24 04:00:56;;;;;;;2.30;0.60;;;;;;;-1.09;94.06;95464.40;108946;1268;22455;-79
2023/12/24 04:03:27;;;;;;;0.70;0.30;;;;;;;-1.08;93.58;95464.73;108937;1266;22518;-79
2023/12/24 04:05:58;;;;;;;0.90;0.40;;;;;;;-1.08;93.89;95460.56;108943;1271;22705;-79
2023/12/24 04:08:29;;;;;;;0.50;0.40;;;;;;;-1.07;93.65;95461.36;108908;1271;25495;-78
2023/12/24 04:11:00;;;;;;;0.40;0.30;;;;;;;-1.08;93.64;95459.80;108924;1266;22603;-78
2023/12/24 04:13:34;;;;;;;1.60;0.40;;;;;;;-1.08;93.61;95462.29;108911;1268;25508;-78
2023/12/24 04:16:05;;;;;;;1.40;0.40;;;;;;;-1.09;93.83;95456.13;108973;1262;22538;-78
2023/12/24 04:18:39;;;;;;;0.30;0.30;;;;;;;-1.10;93.71;95458.45;108950;1266;23855;-78
2023/12/24 04:21:12;;;;;;;1.60;0.60;;;;;;;-1.09;93.71;95459.92;109012;1264;23084;-78
2023/12/24 04:23:43;;;;;;;0.80;0.30;;;;;;;-1.10;94.29;95464.59;108997;1271;25284;-78
2023/12/24 04:26:14;;;;;;;1.20;0.50;;;;;;;-1.14;94.65;95460.77;108958;1271;25352;-78
2023/12/24 04:28:45;;;;;;;0.80;0.20;;;;;;;-1.14;94.26;95465.73;108916;1271;22555;-78
2023/12/24 04:31:16;;;;;;;0.20;0.20;;;;;;;-1.16;94.92;95468.16;109006;1271;22545;-78
2023/12/24 04:33:47;;;;;;;1.50;0.40;;;;;;;-1.17;94.89;95471.73;108909;1271;22521;-78
2023/12/24 04:36:23;;;;;;;0.70;0.40;;;;;;;-1.16;95.07;95467.02;108997;1271;22517;-78
2023/12/24 04:38:56;;;;;;;0.80;0.40;;;;;;;-1.17;94.93;95474.27;108900;1266;25271;-79
2023/12/24 04:41:30;;;;;;;0.60;0.30;;;;;;;-1.18;94.82;95479.21;108948;1268;22533;-79
2023/12/24 04:44:04;;;;;;;4.50;0.70;;;;;;;-1.17;95.07;95477.09;108974;1265;23169;-79
2023/12/24 04:46:43;;;;;;;1.80;0.50;;;;;;;-1.18;94.98;95480.50;108968;1268;22519;-79
2023/12/24 04:49:14;;;;;;;2.20;0.30;;;;;;;-1.17;95.10;95483.89;108947;1268;22540;-79
2023/12/24 04:51:46;;;;;;;0.60;0.30;;;;;;;-1.15;94.74;95487.56;108977;1271;24221;-79
2023/12/24 04:54:17;;;;;;;0.90;0.40;;;;;;;-1.18;94.92;95484.41;108941;1271;22630;-79
2023/12/24 04:56:48;;;;;;;1.30;0.40;;;;;;;-1.21;94.72;95490.35;108949;1266;25345;-79
2023/12/24 04:59:19;;;;;;;0.60;0.40;;;;;;;-1.23;94.95;95493.64;108954;1271;22559;-79
2023/12/24 05:01:53;;;;;;;0.70;0.40;;;;;;;-1.25;95.07;95492.20;108956;1268;22517;-79
2023/12/24 05:04:27;;;;;;;0.80;0.40;;;;;;;-1.27;95.01;95493.77;108952;1271;22589;-79
2023/12/24 05:06:58;;;;;;;0.90;0.40;;;;;;;-1.27;95.23;95503.48;108948;1271;23376;-79
2023/12/24 05:09:29;;;;;;;0.90;0.40;;;;;;;-1.29;95.13;95501.31;108875;1271;25938;-79
2023/12/24 05:12:00;;;;;;;1.20;0.60;;;;;;;-1.29;95.35;95510.04;108965;1268;22569;-79
2023/12/24 05:14:31;;;;;;;0.90;0.30;;;;;;;-1.28;95.39;95510.70;108967;1271;22659;-76
2023/12/24 05:17:03;;;;;;;1.40;0.50;;;;;;;-1.24;95.58;95501.36;108941;1271;25287;-79
2023/12/24 05:19:34;;;;;;;1.40;0.70;;;;;;;-1.23;95.58;95504.60;108936;1268;24487;-79
2023/12/24 05:22:05;;;;;;;1.70;0.50;;;;;;;-1.24;95.46;95507.77;108919;1271;23986;-79
2023/12/24 05:24:36;;;;;;;1.20;0.50;;;;;;;-1.24;95.26;95507.23;108885;1271;24269;-79
2023/12/24 05:27:07;;;;;;;0.40;0.20;;;;;;;-1.24;95.49;95512.55;108938;1271;22525;-79
2023/12/24 05:29:40;;;;;;;0.80;0.40;;;;;;;-1.23;95.48;95508.60;108920;1268;23807;-80
2023/12/24 05:32:14;;;;;;;1.50;0.60;;;;;;;-1.24;95.46;95511.98;109004;1268;25397;-79
2023/12/24 05:34:45;;;;;;;1.40;0.60;;;;;;;-1.24;95.47;95517.64;108922;1271;22552;-79
2023/12/24 05:37:16;;;;;;;1.70;0.80;;;;;;;-1.24;95.70;95516.55;108941;1266;22511;-79
2023/12/24 05:39:47;;;;;;;1.50;0.50;;;;;;;-1.24;95.96;95518.27;108873;1271;22641;-79
2023/12/24 05:42:18;;;;;;;0.60;0.60;;;;;;;-1.24;95.60;95507.87;108911;1271;22521;-79
2023/12/24 05:44:52;;;;;;;2.40;0.60;;;;;;;-1.24;95.73;95507.45;108943;1271;22551;-79
2023/12/24 05:47:27;;;;;;;0.70;0.30;;;;;;;-1.23;95.81;95504.30;108968;1270;23050;-78
2023/12/24 05:49:58;;;;;;;2.80;0.60;;;;;;;-1.24;95.68;95505.42;108855;1269;24193;-79
2023/12/24 05:52:29;;;;;;;0.30;0.30;;;;;;;-1.23;95.96;95500.13;108924;1271;22516;-79
2023/12/24 05:55:03;;;;;;;1.10;0.80;;;;;;;-1.23;96.22;95499.20;108918;1271;22543;-79
2023/12/24 05:57:35;;;;;;;2.30;0.80;;;;;;;-1.24;96.17;95502.41;108939;1266;22559;-79
2023/12/24 06:00:08;;;;;;;3.40;0.70;;;;;;;-1.23;96.15;95502.68;108941;1268;23801;-78
2023/12/24 06:02:39;;;;;;;2.50;0.50;;;;;;;-1.23;96.22;95507.20;108949;1271;22522;-78
2023/12/24 06:05:10;;;;;;;1.80;0.50;;;;;;;-1.23;96.39;95503.73;108978;1271;22511;-78
2023/12/24 06:07:41;;;;;;;2.50;0.40;;;;;;;-1.22;96.66;95498.70;108913;1271;24210;-78
2023/12/24 06:10:16;;;;;;;2.20;1.20;;;;;;;-1.21;97.11;95500.53;108879;1271;22515;-78
2023/12/24 06:12:51;;;;;;;6.80;2.80;;;;;;;-1.22;97.19;95501.77;108947;1271;22726;-78
2023/12/24 06:15:24;;;;;;;25.00;12.90;;;;;;;-1.20;97.28;95510.27;108988;1271;22541;-78
2023/12/24 06:17:58;;;;;;;0.50;0.30;;;;;;;-1.20;97.14;95513.98;108966;1271;25249;-78
2023/12/24 06:20:31;;;;;;;1.50;0.60;;;;;;;-1.20;97.37;95510.79;109001;1271;22528;-78
2023/12/24 06:23:04;;;;;;;0.90;0.60;;;;;;;-1.21;97.65;95507.36;108945;1267;22545;-78
2023/12/24 06:25:35;;;;;;;1.20;0.70;;;;;;;-1.21;97.52;95506.25;109040;1271;24287;-78
2023/12/24 06:28:07;;;;;;;0.50;0.40;;;;;;;-1.22;97.41;95505.88;108904;1268;23123;-79
2023/12/24 06:30:40;;;;;;;1.30;0.60;;;;;;;-1.20;97.58;95507.10;108930;1271;25239;-79
2023/12/24 06:33:13;;;;;;;4.80;3.20;;;;;;;-1.18;97.65;95507.02;108971;1268;22565;-79
2023/12/24 06:35:44;;;;;;;2.80;1.30;;;;;;;-1.17;97.43;95508.13;108947;1268;22579;-79
2023/12/24 06:38:15;;;;;;;2.80;1.10;;;;;;;-1.17;97.31;95512.05;108944;1271;25284;-79
2023/12/24 06:40:46;;;;;;;2.10;1.10;;;;;;;-1.17;97.36;95513.59;108925;1271;25414;-79
2023/12/24 06:43:17;;;;;;;5.50;2.70;;;;;;;-1.15;97.29;95508.84;108936;1268;22525;-79
2023/12/24 06:45:48;;;;;;;3.30;1.30;;;;;;;-1.12;97.60;95507.77;109005;1267;22554;-79
2023/12/24 06:48:20;;;;;;;2.60;0.90;;;;;;;-1.10;97.21;95507.14;108908;1271;23035;-80
2023/12/24 06:50:52;;;;;;;1.40;1.10;;;;;;;-1.08;97.32;95508.38;108953;1269;23844;-79
2023/12/24 06:53:28;;;;;;;1.70;0.90;;;;;;;-1.06;97.49;95508.56;108989;1265;24353;-79
2023/12/24 06:56:01;;;;;;;1.40;1.00;;;;;;;-1.04;97.37;95511.86;108986;1272;24020;-79
2023/12/24 06:58:33;;;;;;;1.00;1.00;;;;;;;-1.04;97.36;95512.23;108988;1271;22539;-78
2023/12/24 07:01:05;;;;;;;1.40;0.40;;;;;;;-1.06;97.25;95514.17;108993;1271;22514;-79
2023/12/24 07:03:36;;;;;;;1.30;0.70;;;;;;;-1.06;97.31;95520.46;109031;1271;22533;-79
2023/12/24 07:06:08;;;;;;;1.30;0.80;;;;;;;-1.05;97.30;95523.71;108832;1269;22481;-79
2023/12/24 07:08:39;;;;;;;1.20;0.80;;;;;;;-1.03;97.67;95522.04;108786;1271;22517;-78
2023/12/24 07:11:11;;;;;;;2.50;0.90;;;;;;;-1.03;97.38;95527.08;108923;1271;22530;-78
2023/12/24 07:13:42;;;;;;;2.40;1.10;;;;;;;-1.03;97.57;95524.99;108822;1271;22535;-78
2023/12/24 07:16:14;;;;;;;2.80;1.50;;;;;;;-1.02;97.52;95524.45;108908;1271;22507;-79
2023/12/24 07:18:45;;;;;;;3.40;1.60;;;;;;;-0.97;97.48;95523.29;108909;1268;22834;-78
2023/12/24 07:21:16;;;;;;;2.00;1.10;;;;;;;-0.96;97.45;95529.95;108887;1271;22514;-78
2023/12/24 07:23:48;;;;;;;1.80;1.10;;;;;;;-0.94;97.62;95529.29;108925;1271;22518;-79
2023/12/24 07:26:22;;;;;;;1.60;1.40;;;;;;;-0.90;97.56;95529.77;109057;1271;23028;-79
2023/12/24 07:28:57;;;;;;;3.70;1.60;;;;;;;-0.87;97.73;95528.30;108987;1271;22526;-79
2023/12/24 07:31:28;;;;;;;2.50;1.60;;;;;;;-0.81;97.51;95523.08;109000;1271;25402;-78
2023/12/24 07:33:59;;;;;;;2.80;1.80;;;;;;;-0.77;97.59;95514.48;108996;1271;24298;-78
2023/12/24 07:36:30;;;;;;;3.60;1.90;;;;;;;-0.76;97.61;95512.70;109034;1271;22531;-78
2023/12/24 07:39:05;;;;;;;2.50;1.50;;;;;;;-0.69;97.39;95516.72;108933;1271;24398;-79
2023/12/24 07:41:37;;;;;;;2.50;1.50;;;;;;;-0.67;97.28;95523.27;108971;1271;22559;-79
2023/12/24 07:44:10;;;;;;;2.90;1.80;;;;;;;-0.65;97.34;95523.77;108951;1268;24178;-79
2023/12/24 07:46:41;;;;;;;2.60;1.50;;;;;;;-0.64;97.27;95526.64;108976;1271;22525;-79
2023/12/24 07:49:13;;;;;;;3.60;1.90;;;;;;;-0.62;97.36;95522.83;108919;1271;24246;-79
2023/12/24 07:51:44;;;;;;;2.40;1.40;;;;;;;-0.58;97.15;95522.66;109041;1271;22504;-78
2023/12/24 07:54:15;;;;;;;4.00;1.80;;;;;;;-0.58;96.95;95515.65;108953;1269;22837;-79
2023/12/24 07:56:46;;;;;;;3.50;1.80;;;;;;;-0.58;97.15;95515.17;109016;1271;25065;-79
2023/12/24 07:59:17;;;;;;;3.10;1.70;;;;;;;-0.57;97.19;95508.42;108987;1271;22840;-79
2023/12/24 08:01:51;;;;;;;2.10;1.40;;;;;;;-0.57;96.94;95501.83;108975;1271;22553;-79
2023/12/24 08:04:25;;;;;;;4.40;2.40;;;;;;;-0.60;96.89;95499.32;108977;1269;25406;-78
2023/12/24 08:06:59;;;;;;;3.40;1.90;;;;;;;-0.58;97.15;95505.48;109029;1266;23828;-78
2023/12/24 08:09:31;;;;;;;3.70;2.10;;;;;;;-0.54;97.18;95505.58;109042;1271;23308;-79
2023/12/24 08:12:02;;;;;;;4.10;2.50;;;;;;;-0.48;97.22;95509.11;109028;1270;22539;-79
2023/12/24 08:14:34;;;;;;;4.00;2.20;;;;;;;-0.44;97.40;95512.14;108996;1271;22459;-79
2023/12/24 08:17:05;;;;;;;3.80;2.30;;;;;;;-0.37;97.50;95518.46;109021;1271;22541;-78
2023/12/24 08:19:36;;;;;;;5.90;2.80;;;;;;;-0.31;97.58;95509.38;108960;1271;22686;-78
2023/12/24 08:22:07;;;;;;;3.60;2.30;;;;;;;-0.31;97.20;95506.30;108978;1271;24044;-77
2023/12/24 08:24:39;;;;;;;3.80;2.00;;;;;;;-0.31;97.07;95506.10;109003;1262;22518;-79
2023/12/24 08:27:10;;;;;;;79.90;47.60;;;;;;;-0.32;97.18;95509.77;109092;1271;25413;-77
2023/12/24 08:29:42;;;;;;;15.30;12.40;;;;;;;-0.32;97.13;95512.74;108989;1271;22834;-79
2023/12/24 08:32:13;;;;;;;3.80;2.30;;;;;;;-0.29;97.20;95511.80;109026;1271;25265;-79
2023/12/24 08:34:44;;;;;;;13.30;7.50;;;;;;;-0.29;97.18;95515.23;109002;1271;22534;-79
2023/12/24 08:37:15;;;;;;;7.00;4.50;;;;;;;-0.28;97.05;95515.17;109052;1268;23000;-79
2023/12/24 08:39:46;;;;;;;7.90;4.40;;;;;;;-0.25;97.06;95514.48;109001;1271;26285;-78
2023/12/24 08:42:17;;;;;;;19.00;16.60;;;;;;;-0.25;96.85;95519.69;108928;1265;22534;-78
2023/12/24 08:44:48;;;;;;;5.00;2.80;;;;;;;-0.24;97.16;95515.13;108980;1266;24218;-78
2023/12/24 08:47:22;;;;;;;5.50;3.00;;;;;;;-0.27;96.72;95512.31;109022;1269;22946;-79
2023/12/24 08:49:53;;;;;;;4.70;2.40;;;;;;;-0.30;96.87;95521.83;108990;1271;23263;-78
2023/12/24 08:52:27;;;;;;;3.70;2.10;;;;;;;-0.32;97.05;95524.67;108791;1264;22557;-79
2023/12/24 08:54:58;;;;;;;5.00;2.70;;;;;;;-0.33;97.04;95526.42;108902;1268;24243;-80
2023/12/24 08:57:29;;;;;;;4.30;2.80;;;;;;;-0.32;97.18;95529.40;109001;1271;22523;-80
2023/12/24 09:00:02;;;;;;;6.10;3.40;;;;;;;-0.33;97.22;95529.45;108893;1269;22533;-79
2023/12/24 09:02:34;;;;;;;6.00;3.10;;;;;;;-0.32;97.19;95534.45;109714;1264;22518;-80
2023/12/24 09:05:07;;;;;;;6.50;3.00;;;;;;;-0.31;97.34;95537.39;109029;1271;22474;-80
2023/12/24 09:07:41;;;;;;;6.80;3.80;;;;;;;-0.32;97.43;95542.07;109018;1271;24203;-79
2023/12/24 09:10:13;;;;;;;5.50;3.30;;;;;;;-0.32;97.34;95536.70;108983;1270;22622;-79
2023/12/24 09:12:44;;;;;;;7.20;4.40;;;;;;;-0.33;97.47;95531.42;109009;1268;22522;-79
2023/12/24 09:15:15;;;;;;;10.20;5.30;;;;;;;-0.30;97.46;95532.56;109009;1271;23614;-79
2023/12/24 09:17:46;;;;;;;8.10;4.90;;;;;;;-0.26;97.49;95522.85;109015;1271;23840;-80
2023/12/24 09:20:17;;;;;;;7.40;4.30;;;;;;;-0.20;97.81;95519.86;108960;1271;23017;-80
2023/12/24 09:22:49;;;;;;;6.70;3.40;;;;;;;-0.12;97.72;95509.47;109051;1270;22483;-80
2023/12/24 09:25:20;;;;;;;6.40;3.80;;;;;;;-0.09;97.68;95499.62;109044;1271;24212;-80
2023/12/24 09:27:51;;;;;;;5.80;3.70;;;;;;;-0.05;97.88;95494.56;109012;1271;22521;-80
2023/12/24 09:30:25;;;;;;;6.60;3.70;;;;;;;0.02;97.78;95485.88;108964;1257;22989;-80
2023/12/24 09:32:56;;;;;;;7.30;4.00;;;;;;;0.07;97.61;95482.81;109032;1267;24001;-80
2023/12/24 09:35:29;;;;;;;3.60;2.70;;;;;;;0.17;97.99;95479.41;108992;1271;23873;-80
2023/12/24 09:38:02;;;;;;;3.60;2.70;;;;;;;0.22;97.79;95478.06;109046;1270;23737;-80
2023/12/24 09:40:33;;;;;;;6.50;4.40;;;;;;;0.30;98.02;95475.66;108997;1264;22575;-79
2023/12/24 09:43:05;;;;;;;9.10;5.10;;;;;;;0.37;98.01;95471.58;108992;1271;22543;-79
2023/12/24 09:45:37;;;;;;;8.80;4.90;;;;;;;0.38;97.59;95468.05;109014;1264;24215;-79
2023/12/24 09:48:10;;;;;;;6.80;4.60;;;;;;;0.42;97.86;95461.52;109023;1271;23627;-80
2023/12/24 09:50:41;;;;;;;6.10;3.80;;;;;;;0.47;97.83;95458.63;108982;1271;26323;-80
2023/12/24 09:53:13;;;;;;;6.30;4.20;;;;;;;0.51;97.98;95451.41;108988;1271;23728;-80
2023/12/24 09:55:46;;;;;;;8.80;5.40;;;;;;;0.55;97.92;95444.43;109001;1271;22515;-80
2023/12/24 09:58:17;;;;;;;11.30;6.20;;;;;;;0.56;97.87;95439.33;109033;1271;23464;-81
2023/12/24 10:00:49;;;;;;;17.90;10.20;;;;;;;0.59;98.05;95436.77;109005;1271;22544;-80
2023/12/24 10:03:22;;;;;;;17.70;10.30;;;;;;;0.66;98.24;95435.20;109029;1271;22522;-79
2023/12/24 10:06:05;;;;;;;11.10;6.20;;;;;;;0.71;98.23;95430.33;109039;1271;24186;-80
2023/12/24 10:08:37;;;;;;;7.70;4.90;;;;;;;0.75;98.35;95433.95;109021;1271;22524;-79
2023/12/24 10:11:20;;;;;;;8.20;5.10;;;;;;;0.80;98.18;95433.42;108998;1271;23265;-79
2023/12/24 10:14:03;;;;;;;6.90;3.90;;;;;;;0.83;98.38;95428.77;108954;1271;22519;-80
2023/12/24 10:16:44;;;;;;;7.60;5.00;;;;;;;0.98;99.01;95424.79;108967;1270;22542;-80
2023/12/24 10:19:25;;;;;;;8.30;4.40;;;;;;;1.15;99.17;95424.84;109013;1271;22524;-80
2023/12/24 10:22:06;;;;;;;8.80;4.90;;;;;;;1.24;99.11;95419.33;108976;1271;23800;-81
2023/12/24 10:24:43;;;;;;;8.30;5.40;;;;;;;1.33;99.29;95416.39;109044;1271;22518;-80
2023/12/24 10:27:15;;;;;;;10.00;6.00;;;;;;;1.42;99.31;95413.59;109007;1271;23121;-79
2023/12/24 10:29:46;;;;;;;13.10;7.50;;;;;;;1.47;99.28;95412.42;109046;1264;22543;-80
2023/12/24 10:32:27;;;;;;;10.00;6.10;;;;;;;1.48;99.03;95407.94;109046;1267;22525;-80
2023/12/24 10:34:59;;;;;;;11.40;6.80;;;;;;;1.47;98.98;95399.36;109074;1248;25252;-80
2023/12/24 10:37:33;;;;;;;10.40;6.10;;;;;;;1.52;99.23;95396.00;109069;1271;22648;-81
2023/12/24 10:40:12;;;;;;;6.40;4.00;;;;;;;1.58;99.30;95394.91;109007;1270;22901;-81
2023/12/24 10:42:43;;;;;;;9.00;6.00;;;;;;;1.63;99.26;95385.01;108995;1248;22574;-81
2023/12/24 10:45:14;;;;;;;9.40;5.00;;;;;;;1.68;99.40;95379.91;109045;1269;24301;-82
2023/12/24 10:47:45;;;;;;;6.80;4.10;;;;;;;1.73;99.44;95380.02;109022;1271;22588;-82
2023/12/24 10:50:16;;;;;;;10.50;6.30;;;;;;;1.76;99.53;95372.86;108975;1271;23148;-82
2023/12/24 10:52:47;;;;;;;8.40;5.50;;;;;;;1.81;99.78;95366.94;108979;1271;22517;-81
2023/12/24 10:55:18;;;;;;;7.20;4.40;;;;;;;1.86;99.82;95368.17;108990;1257;25239;-78
2023/12/24 10:58:00;;;;;;;11.20;4.80;;;;;;;1.88;99.90;95366.61;109057;1270;25275;-82
2023/12/24 11:00:34;;;;;;;7.70;5.00;;;;;;;1.94;100.00;95365.75;109050;1271;26032;-81
2023/12/24 11:03:06;;;;;;;5.70;3.60;;;;;;;1.99;99.97;95364.52;108997;1264;22573;-82
2023/12/24 11:05:52;;;;;;;5.60;3.90;;;;;;;2.03;100.00;95353.71;108994;1271;22518;-81
2023/12/24 11:08:33;;;;;;;9.10;4.70;;;;;;;2.11;100.00;95351.66;109033;1271;22623;-80
2023/12/24 11:11:06;;;;;;;9.20;4.30;;;;;;;2.14;100.00;95349.48;109047;1271;25474;-81
2023/12/24 11:13:47;;;;;;;8.80;4.70;;;;;;;2.16;100.00;95349.80;108980;1271;22460;-82
2023/12/24 11:16:41;;;;;;;10.90;5.70;;;;;;;2.18;100.00;95344.27;109107;1271;24214;-82
2023/12/24 11:19:25;;;;;;;10.60;5.50;;;;;;;2.21;100.00;95339.83;109023;1271;24251;-81
2023/12/24 11:22:10;;;;;;;7.40;3.60;;;;;;;2.22;100.00;95333.14;109044;1270;22517;-80
2023/12/24 11:24:45;;;;;;;6.80;4.70;;;;;;;2.24;100.00;95331.89;109082;1269;22527;-82
2023/12/24 11:27:16;;;;;;;7.20;4.40;;;;;;;2.29;100.00;95335.41;109043;1264;22519;-82
2023/12/24 11:29:49;;;;;;;8.90;5.00;;;;;;;2.29;100.00;95334.95;109013;1264;22528;-81
2023/12/24 11:32:39;;;;;;;10.20;5.30;;;;;;;2.29;100.00;95342.22;109015;1264;22972;-82
2023/12/24 11:35:30;;;;;;;7.00;4.70;;;;;;;2.31;100.00;95332.02;109061;1268;24241;-82
2023/12/24 11:38:24;;;;;;;6.10;3.00;;;;;;;2.37;100.00;95333.87;108898;1264;22615;-81
2023/12/24 11:41:06;;;;;;;7.10;4.30;;;;;;;2.40;100.00;95333.42;109113;1271;22638;-82
2023/12/24 11:43:39;;;;;;;9.60;4.90;;;;;;;2.45;100.00;95326.15;108925;1271;22517;-82
2023/12/24 11:46:11;;;;;;;5.90;4.20;;;;;;;2.47;100.00;95325.90;109045;1251;22548;-82
2023/12/24 11:48:43;;;;;;;6.80;4.70;;;;;;;2.49;100.00;95323.43;109003;1271;22573;-83
2023/12/24 11:51:14;;;;;;;8.80;4.70;;;;;;;2.52;100.00;95314.91;109033;1271;22640;-83